Time,TemperatureF,DewpointF,PressureIn,WindDirection,WindDirectionDegrees,WindSpeedMPH,WindSpeedGustMPH,Humidity,HourlyPrecipIn,Conditions,Clouds,dailyrainin,SoftwareType,DateUTC
2013-04-18 00:05:00,72.9,66.0,30.10,NE,41,6.0,6.0,79,0.00,,,0.00,Wunderground v.1.15,2013-04-18 10:05:00,
2013-04-18 00:15:00,73.0,65.7,30.10,East,82,6.0,12.0,78,0.00,,,0.00,Wunderground v.1.15,2013-04-18 10:15:00,
2013-04-18 00:25:00,72.6,66.4,30.09,ESE,107,5.0,6.0,81,0.00,,,0.00,Wunderground v.1.15,2013-04-18 10:25:00,
2013-04-18 00:35:00,72.3,67.2,30.09,East,94,6.0,6.0,84,0.00,,,0.00,Wunderground v.1.15,2013-04-18 10:35:00,
2013-04-18 00:45:00,72.1,67.0,30.09,East,90,6.0,9.0,84,0.00,,,0.00,Wunderground v.1.15,2013-04-18 10:45:00,
2013-04-18 00:55:00,72.2,66.7,30.09,ENE,71,5.0,8.0,83,0.00,,,0.00,Wunderground v.1.15,2013-04-18 10:55:00,
2013-04-18 01:05:00,72.4,66.9,30.08,ENE,65,5.0,7.0,83,0.00,,,0.00,Wunderground v.1.15,2013-04-18 11:05:00,
2013-04-18 01:15:00,72.6,66.8,30.08,ESE,108,6.0,7.0,82,0.00,,,0.00,Wunderground v.1.15,2013-04-18 11:15:00,
2013-04-18 01:25:00,72.6,66.4,30.08,SE,127,5.0,11.0,81,0.00,,,0.00,Wunderground v.1.15,2013-04-18 11:25:00,
2013-04-18 01:35:00,72.4,66.2,30.08,ENE,73,5.0,5.0,81,0.00,,,0.00,Wunderground v.1.15,2013-04-18 11:35:00,
2013-04-18 01:45:00,72.4,66.2,30.08,East,90,5.0,6.0,81,0.00,,,0.00,Wunderground v.1.15,2013-04-18 11:45:00,
2013-04-18 01:55:00,72.3,67.2,30.08,NE,53,6.0,6.0,84,0.00,,,0.00,Wunderground v.1.15,2013-04-18 11:55:00,
2013-04-18 02:05:00,71.9,66.5,30.07,ESE,104,6.0,9.0,83,0.00,,,0.00,Wunderground v.1.15,2013-04-18 12:05:00,
2013-04-18 02:15:00,71.6,66.5,30.07,ENE,61,5.0,8.0,84,0.00,,,0.00,Wunderground v.1.15,2013-04-18 12:15:00,
2013-04-18 02:25:00,71.4,66.3,30.07,ESE,105,4.0,10.0,84,0.00,,,0.00,Wunderground v.1.15,2013-04-18 12:25:00,
2013-04-18 02:35:00,71.6,66.2,30.07,ESE,114,5.0,6.0,83,0.00,,,0.00,Wunderground v.1.15,2013-04-18 12:35:00,
2013-04-18 02:45:00,71.6,65.8,30.06,ESE,117,5.0,6.0,82,0.00,,,0.00,Wunderground v.1.15,2013-04-18 12:45:00,
2013-04-18 02:55:00,71.8,66.0,30.06,East,98,4.0,5.0,82,0.00,,,0.00,Wunderground v.1.15,2013-04-18 12:55:00,
2013-04-18 03:05:00,71.9,65.8,30.06,East,98,5.0,6.0,81,0.00,,,0.00,Wunderground v.1.15,2013-04-18 13:05:00,
2013-04-18 03:15:00,71.8,65.7,30.06,East,91,4.0,4.0,81,0.00,,,0.00,Wunderground v.1.15,2013-04-18 13:15:00,
2013-04-18 03:25:00,71.9,66.1,30.06,East,101,4.0,4.0,82,0.00,,,0.00,Wunderground v.1.15,2013-04-18 13:25:00,
2013-04-18 03:30:00,71.9,66.1,30.06,East,96,5.0,5.0,82,0.00,,,0.00,Wunderground v.1.15,2013-04-18 13:30:00,
2013-04-18 03:40:00,71.5,66.1,30.06,East,94,5.0,5.0,83,0.00,,,0.00,Wunderground v.1.15,2013-04-18 13:40:00,
2013-04-18 03:50:00,71.5,66.1,30.06,ESE,114,4.0,4.0,83,0.00,,,0.00,Wunderground v.1.15,2013-04-18 13:50:00,
2013-04-18 04:00:00,71.6,65.8,30.06,East,90,3.0,3.0,82,0.00,,,0.00,Wunderground v.1.15,2013-04-18 14:00:00,
2013-04-18 04:05:00,71.5,65.7,30.06,East,99,4.0,5.0,82,0.00,,,0.00,Wunderground v.1.15,2013-04-18 14:05:00,
2013-04-18 04:15:00,71.5,65.4,30.06,ESE,113,4.0,4.0,81,0.00,,,0.00,Wunderground v.1.15,2013-04-18 14:15:00,
2013-04-18 04:20:00,71.7,65.6,30.06,East,96,5.0,5.0,81,0.00,,,0.00,Wunderground v.1.15,2013-04-18 14:20:00,
2013-04-18 04:30:00,71.6,65.5,30.06,ESE,117,4.0,13.0,81,0.00,,,0.00,Wunderground v.1.15,2013-04-18 14:30:00,
2013-04-18 04:40:00,71.8,65.3,30.06,East,96,5.0,5.0,80,0.00,,,0.00,Wunderground v.1.15,2013-04-18 14:40:00,
2013-04-18 04:50:00,71.8,65.3,30.06,East,86,5.0,5.0,80,0.00,,,0.00,Wunderground v.1.15,2013-04-18 14:50:00,
2013-04-18 04:55:00,71.7,65.2,30.06,ESE,114,5.0,5.0,80,0.00,,,0.00,Wunderground v.1.15,2013-04-18 14:55:00,
2013-04-18 05:05:00,71.8,65.3,30.06,SE,133,5.0,6.0,80,0.00,,,0.00,Wunderground v.1.15,2013-04-18 15:05:00,
2013-04-18 05:15:00,71.8,65.3,30.07,East,83,5.0,7.0,80,0.00,,,0.00,Wunderground v.1.15,2013-04-18 15:15:00,
2013-04-18 05:25:00,71.6,65.1,30.07,ESE,117,3.0,4.0,80,0.00,,,0.00,Wunderground v.1.15,2013-04-18 15:25:00,
2013-04-18 05:35:00,71.6,65.5,30.08,East,90,3.0,3.0,81,0.00,,,0.00,Wunderground v.1.15,2013-04-18 15:35:00,
2013-04-18 05:40:00,71.5,65.4,30.07,ESE,113,3.0,12.0,81,0.00,,,0.00,Wunderground v.1.15,2013-04-18 15:40:00,
2013-04-18 05:50:00,71.5,65.7,30.07,ENE,63,2.0,3.0,82,0.00,,,0.00,Wunderground v.1.15,2013-04-18 15:50:00,
2013-04-18 06:00:00,71.5,65.4,30.07,East,88,5.0,5.0,81,0.00,,,0.00,Wunderground v.1.15,2013-04-18 16:00:00,
2013-04-18 06:05:00,71.6,65.5,30.07,ENE,72,5.0,5.0,81,0.00,,,0.00,Wunderground v.1.15,2013-04-18 16:05:00,
2013-04-18 06:15:00,71.4,65.3,30.07,ENE,76,3.0,4.0,81,0.00,,,0.00,Wunderground v.1.15,2013-04-18 16:15:00,
2013-04-18 06:25:00,71.6,65.8,30.08,East,97,4.0,4.0,82,0.00,,,0.00,Wunderground v.1.15,2013-04-18 16:25:00,
2013-04-18 06:30:00,71.7,65.9,30.08,East,98,3.0,3.0,82,0.00,,,0.00,Wunderground v.1.15,2013-04-18 16:30:00,
2013-04-18 06:35:00,71.8,65.7,30.08,ENE,71,3.0,4.0,81,0.00,,,0.00,Wunderground v.1.15,2013-04-18 16:35:00,
2013-04-18 06:45:00,72.1,65.9,30.09,East,101,3.0,4.0,81,0.00,,,0.00,Wunderground v.1.15,2013-04-18 16:45:00,
2013-04-18 06:50:00,72.4,65.9,30.09,East,84,3.0,3.0,80,0.00,,,0.00,Wunderground v.1.15,2013-04-18 16:50:00,
2013-04-18 07:00:00,73.0,65.7,30.09,ESE,102,4.0,10.0,78,0.00,,,0.00,Wunderground v.1.15,2013-04-18 17:00:00,
2013-04-18 07:05:00,73.3,65.7,30.09,East,96,5.0,10.0,77,0.00,,,0.00,Wunderground v.1.15,2013-04-18 17:05:00,
2013-04-18 07:15:00,73.5,65.5,30.09,ESE,119,4.0,5.0,76,0.00,,,0.00,Wunderground v.1.15,2013-04-18 17:15:00,
2013-04-18 07:25:00,73.9,65.5,30.10,East,82,4.0,9.0,75,0.00,,,0.00,Wunderground v.1.15,2013-04-18 17:25:00,
2013-04-18 07:35:00,74.4,65.2,30.09,SE,132,6.0,7.0,73,0.00,,,0.00,Wunderground v.1.15,2013-04-18 17:35:00,
2013-04-18 07:45:00,74.9,65.3,30.10,East,95,6.0,13.0,72,0.00,,,0.00,Wunderground v.1.15,2013-04-18 17:45:00,
2013-04-18 07:55:00,75.5,65.8,30.10,ENE,61,3.0,5.0,72,0.00,,,0.00,Wunderground v.1.15,2013-04-18 17:55:00,
2013-04-18 08:05:00,75.5,65.8,30.10,ESE,111,7.0,7.0,72,0.00,,,0.00,Wunderground v.1.15,2013-04-18 18:05:00,
2013-04-18 08:15:00,76.2,65.7,30.10,East,84,7.0,7.0,70,0.00,,,0.00,Wunderground v.1.15,2013-04-18 18:15:00,
2013-04-18 08:20:00,76.5,65.6,30.10,East,92,7.0,12.0,69,0.00,,,0.00,Wunderground v.1.15,2013-04-18 18:20:00,
2013-04-18 08:30:00,76.6,65.7,30.11,ESE,107,9.0,9.0,69,0.00,,,0.00,Wunderground v.1.15,2013-04-18 18:30:00,
2013-04-18 08:35:00,76.6,65.2,30.11,East,87,8.0,9.0,68,0.00,,,0.00,Wunderground v.1.15,2013-04-18 18:35:00,
2013-04-18 08:45:00,77.3,66.3,30.10,East,88,6.0,9.0,69,0.00,,,0.00,Wunderground v.1.15,2013-04-18 18:45:00,
2013-04-18 08:55:00,76.7,66.6,30.11,ENE,64,5.0,5.0,71,0.00,,,0.00,Wunderground v.1.15,2013-04-18 18:55:00,
2013-04-18 09:05:00,76.2,66.9,30.11,NNE,32,7.0,7.0,73,0.00,,,0.00,Wunderground v.1.15,2013-04-18 19:05:00,
2013-04-18 09:15:00,77.8,67.2,30.11,East,86,6.0,7.0,70,0.00,,,0.00,Wunderground v.1.15,2013-04-18 19:15:00,
2013-04-18 09:25:00,76.0,68.3,30.12,ENE,63,7.0,7.0,77,0.00,,,0.01,Wunderground v.1.15,2013-04-18 19:25:00,
2013-04-18 09:35:00,73.7,68.6,30.13,East,84,5.0,7.0,84,0.10,,,0.02,Wunderground v.1.15,2013-04-18 19:35:00,
2013-04-18 09:40:00,73.5,69.1,30.12,ENE,63,6.0,6.0,86,0.06,,,0.02,Wunderground v.1.15,2013-04-18 19:40:00,
2013-04-18 09:45:00,74.0,69.5,30.12,East,85,6.0,8.0,86,0.04,,,0.02,Wunderground v.1.15,2013-04-18 19:45:00,
2013-04-18 09:55:00,74.6,67.3,30.12,East,80,7.0,7.0,78,0.00,,,0.02,Wunderground v.1.15,2013-04-18 19:55:00,
2013-04-18 10:05:00,75.5,67.4,30.11,East,94,8.0,8.0,76,0.00,,,0.02,Wunderground v.1.15,2013-04-18 20:05:00,
2013-04-18 10:15:00,76.4,66.7,30.11,ESE,109,7.0,11.0,72,0.00,,,0.02,Wunderground v.1.15,2013-04-18 20:15:00,
2013-04-18 10:20:00,76.5,66.8,30.11,ENE,76,8.0,9.0,72,0.00,,,0.02,Wunderground v.1.15,2013-04-18 20:20:00,
2013-04-18 10:25:00,77.1,68.2,30.11,NE,39,7.0,10.0,74,0.00,,,0.02,Wunderground v.1.15,2013-04-18 20:25:00,
2013-04-18 10:35:00,77.3,68.0,30.11,SE,129,7.0,10.0,73,0.00,,,0.02,Wunderground v.1.15,2013-04-18 20:35:00,
2013-04-18 10:45:00,77.7,67.5,30.12,ENE,64,8.0,18.0,71,0.00,,,0.02,Wunderground v.1.15,2013-04-18 20:45:00,
2013-04-18 10:55:00,77.3,68.4,30.12,NNE,28,7.0,11.0,74,0.00,,,0.02,Wunderground v.1.15,2013-04-18 20:55:00,
2013-04-18 11:00:00,76.6,68.1,30.11,ENE,57,7.0,7.0,75,0.00,,,0.02,Wunderground v.1.15,2013-04-18 21:00:00,
2013-04-18 11:05:00,76.4,68.3,30.11,ESE,115,7.0,7.0,76,0.00,,,0.02,Wunderground v.1.15,2013-04-18 21:05:00,
2013-04-18 11:15:00,77.9,68.5,30.11,NE,56,5.0,5.0,73,0.00,,,0.02,Wunderground v.1.15,2013-04-18 21:15:00,
2013-04-18 11:25:00,78.5,69.5,30.11,East,79,6.0,9.0,74,0.00,,,0.02,Wunderground v.1.15,2013-04-18 21:25:00,
2013-04-18 11:35:00,77.6,68.7,30.11,East,94,7.0,9.0,74,0.00,,,0.02,Wunderground v.1.15,2013-04-18 21:35:00,
2013-04-18 11:45:00,77.0,68.5,30.11,East,83,7.0,7.0,75,0.00,,,0.02,Wunderground v.1.15,2013-04-18 21:45:00,
2013-04-18 11:55:00,76.9,69.5,30.11,ESE,105,5.0,6.0,78,0.00,,,0.02,Wunderground v.1.15,2013-04-18 21:55:00,
2013-04-18 12:05:00,77.3,68.4,30.11,ESE,117,7.0,9.0,74,0.00,,,0.02,Wunderground v.1.15,2013-04-18 22:05:00,
2013-04-18 12:15:00,78.0,69.4,30.10,ESE,116,6.0,9.0,75,0.00,,,0.02,Wunderground v.1.15,2013-04-18 22:15:00,
2013-04-18 12:25:00,78.7,68.1,30.10,NE,55,7.0,10.0,70,0.00,,,0.02,Wunderground v.1.15,2013-04-18 22:25:00,
2013-04-18 12:30:00,78.9,67.9,30.10,ENE,62,8.0,10.0,69,0.00,,,0.02,Wunderground v.1.15,2013-04-18 22:30:00,
2013-04-18 12:40:00,79.0,68.0,30.09,ENE,74,8.0,8.0,69,0.00,,,0.02,Wunderground v.1.15,2013-04-18 22:40:00,
2013-04-18 12:50:00,78.7,68.9,30.09,ENE,59,7.0,7.0,72,0.00,,,0.02,Wunderground v.1.15,2013-04-18 22:50:00,
2013-04-18 13:00:00,78.1,68.7,30.09,ENE,68,7.0,7.0,73,0.00,,,0.02,Wunderground v.1.15,2013-04-18 23:00:00,
2013-04-18 13:05:00,77.7,68.7,30.09,ENE,67,7.0,9.0,74,0.00,,,0.02,Wunderground v.1.15,2013-04-18 23:05:00,
2013-04-18 13:15:00,77.3,70.3,30.08,East,88,6.0,9.0,79,0.00,,,0.02,Wunderground v.1.15,2013-04-18 23:15:00,
2013-04-18 13:25:00,77.9,68.9,30.08,ENE,57,5.0,7.0,74,0.00,,,0.02,Wunderground v.1.15,2013-04-18 23:25:00,
2013-04-18 13:30:00,77.6,68.3,30.08,ENE,73,7.0,9.0,73,0.00,,,0.02,Wunderground v.1.15,2013-04-18 23:30:00,
2013-04-18 13:40:00,78.2,68.4,30.08,ENE,63,8.0,8.0,72,0.00,,,0.02,Wunderground v.1.15,2013-04-18 23:40:00,
2013-04-18 13:50:00,78.6,68.0,30.07,East,101,7.0,7.0,70,0.00,,,0.02,Wunderground v.1.15,2013-04-18 23:50:00,
2013-04-18 13:55:00,78.4,67.4,30.07,East,89,7.0,8.0,69,0.00,,,0.02,Wunderground v.1.15,2013-04-18 23:55:00,
2013-04-18 14:05:00,77.8,68.4,30.07,NE,56,7.0,8.0,73,0.00,,,0.02,Wunderground v.1.15,2013-04-19 00:05:00,
2013-04-18 14:15:00,77.5,68.6,30.06,NE,55,6.0,10.0,74,0.00,,,0.02,Wunderground v.1.15,2013-04-19 00:15:00,
2013-04-18 14:20:00,77.4,67.7,30.06,East,99,8.0,8.0,72,0.00,,,0.02,Wunderground v.1.15,2013-04-19 00:20:00,
2013-04-18 14:30:00,77.8,68.0,30.06,ESE,102,8.0,13.0,72,0.00,,,0.02,Wunderground v.1.15,2013-04-19 00:30:00,
2013-04-18 14:40:00,77.6,67.9,30.06,ENE,61,7.0,10.0,72,0.00,,,0.02,Wunderground v.1.15,2013-04-19 00:40:00,
2013-04-18 14:50:00,78.0,67.8,30.06,East,81,7.0,7.0,71,0.00,,,0.02,Wunderground v.1.15,2013-04-19 00:50:00,
2013-04-18 15:00:00,77.8,68.0,30.05,ESE,109,7.0,12.0,72,0.00,,,0.02,Wunderground v.1.15,2013-04-19 01:00:00,
2013-04-18 15:05:00,77.1,67.8,30.05,ESE,113,8.0,12.0,73,0.00,,,0.02,Wunderground v.1.15,2013-04-19 01:05:00,
2013-04-18 15:15:00,77.3,68.0,30.05,East,88,7.0,8.0,73,0.00,,,0.02,Wunderground v.1.15,2013-04-19 01:15:00,
2013-04-18 15:25:00,77.2,67.1,30.05,ENE,78,8.0,12.0,71,0.00,,,0.02,Wunderground v.1.15,2013-04-19 01:25:00,
2013-04-18 15:35:00,76.7,67.0,30.05,ESE,106,9.0,9.0,72,0.00,,,0.02,Wunderground v.1.15,2013-04-19 01:35:00,
2013-04-18 15:45:00,75.0,68.0,30.05,NE,48,7.0,9.0,79,0.00,,,0.02,Wunderground v.1.15,2013-04-19 01:45:00,
2013-04-18 15:55:00,75.4,68.4,30.05,ENE,74,7.0,9.0,79,0.00,,,0.02,Wunderground v.1.15,2013-04-19 01:55:00,
2013-04-18 16:05:00,75.8,66.9,30.05,ENE,71,8.0,10.0,74,0.00,,,0.02,Wunderground v.1.15,2013-04-19 02:05:00,
2013-04-18 16:14:00,76.3,67.4,30.05,East,97,9.0,15.0,74,0.00,,,0.02,Wunderground v.1.15,2013-04-19 02:14:00,
2013-04-18 16:20:00,75.8,67.3,30.05,NE,48,8.0,12.0,75,0.00,,,0.02,Wunderground v.1.15,2013-04-19 02:20:00,
2013-04-18 16:30:00,76.3,66.2,30.05,SE,133,8.0,11.0,71,0.00,,,0.02,Wunderground v.1.15,2013-04-19 02:30:00,
2013-04-18 16:35:00,76.5,66.4,30.04,East,101,8.0,11.0,71,0.00,,,0.02,Wunderground v.1.15,2013-04-19 02:35:00,
2013-04-18 16:45:00,76.6,66.5,30.05,East,80,7.0,13.0,71,0.00,,,0.02,Wunderground v.1.15,2013-04-19 02:45:00,
2013-04-18 16:55:00,76.9,66.8,30.05,ESE,121,7.0,8.0,71,0.00,,,0.02,Wunderground v.1.15,2013-04-19 02:55:00,
2013-04-18 17:00:00,76.7,66.6,30.05,ESE,119,8.0,11.0,71,0.00,,,0.02,Wunderground v.1.15,2013-04-19 03:00:00,
2013-04-18 17:05:00,76.6,67.3,30.05,NE,40,8.0,14.0,73,0.00,,,0.02,Wunderground v.1.15,2013-04-19 03:05:00,
2013-04-18 17:15:00,75.9,67.0,30.05,East,86,10.0,12.0,74,0.00,,,0.02,Wunderground v.1.15,2013-04-19 03:15:00,
2013-04-18 17:25:00,76.0,67.1,30.05,ESE,118,8.0,10.0,74,0.00,,,0.02,Wunderground v.1.15,2013-04-19 03:25:00,
2013-04-18 17:35:00,75.8,66.9,30.05,East,90,7.0,8.0,74,0.00,,,0.02,Wunderground v.1.15,2013-04-19 03:35:00,
2013-04-18 17:45:00,75.2,67.1,30.05,East,98,8.0,8.0,76,0.00,,,0.02,Wunderground v.1.15,2013-04-19 03:45:00,
2013-04-18 17:55:00,75.4,67.3,30.06,ENE,73,8.0,10.0,76,0.00,,,0.02,Wunderground v.1.15,2013-04-19 03:55:00,
2013-04-18 18:05:00,75.5,66.6,30.06,ESE,110,7.0,10.0,74,0.00,,,0.02,Wunderground v.1.15,2013-04-19 04:05:00,
2013-04-18 18:15:00,75.2,66.3,30.06,East,80,9.0,11.0,74,0.00,,,0.02,Wunderground v.1.15,2013-04-19 04:15:00,
2013-04-18 18:25:00,74.9,66.4,30.07,ENE,78,7.0,7.0,75,0.00,,,0.02,Wunderground v.1.15,2013-04-19 04:25:00,
2013-04-18 18:35:00,74.7,66.2,30.07,ENE,71,6.0,7.0,75,0.00,,,0.02,Wunderground v.1.15,2013-04-19 04:35:00,
2013-04-18 18:45:00,74.4,66.3,30.08,ESE,113,6.0,10.0,76,0.00,,,0.02,Wunderground v.1.15,2013-04-19 04:45:00,
2013-04-18 18:50:00,74.3,66.6,30.08,ESE,113,6.0,6.0,77,0.00,,,0.02,Wunderground v.1.15,2013-04-19 04:50:00,
2013-04-18 18:55:00,74.2,66.9,30.08,ENE,76,6.0,11.0,78,0.00,,,0.02,Wunderground v.1.15,2013-04-19 04:55:00,
2013-04-18 19:00:00,74.0,66.7,30.08,ENE,67,6.0,7.0,78,0.00,,,0.02,Wunderground v.1.15,2013-04-19 05:00:00,
2013-04-18 19:05:00,74.0,66.7,30.08,East,92,6.0,7.0,78,0.00,,,0.02,Wunderground v.1.15,2013-04-19 05:05:00,
2013-04-18 19:15:00,74.0,66.3,30.09,ESE,107,7.0,10.0,77,0.00,,,0.02,Wunderground v.1.15,2013-04-19 05:15:00,
2013-04-18 19:25:00,73.6,65.9,30.08,ESE,110,6.0,7.0,77,0.00,,,0.02,Wunderground v.1.15,2013-04-19 05:25:00,
2013-04-18 19:35:00,73.5,65.8,30.09,East,84,5.0,9.0,77,0.00,,,0.02,Wunderground v.1.15,2013-04-19 05:35:00,
2013-04-18 19:40:00,73.5,66.2,30.09,East,99,6.0,6.0,78,0.00,,,0.02,Wunderground v.1.15,2013-04-19 05:40:00,
2013-04-18 19:50:00,73.4,65.7,30.09,ENE,73,5.0,7.0,77,0.00,,,0.02,Wunderground v.1.15,2013-04-19 05:50:00,
2013-04-18 20:00:00,73.4,65.4,30.10,East,87,6.0,6.0,76,0.00,,,0.02,Wunderground v.1.15,2013-04-19 06:00:00,
2013-04-18 20:05:00,73.4,65.7,30.10,ESE,110,6.0,6.0,77,0.00,,,0.02,Wunderground v.1.15,2013-04-19 06:05:00,
2013-04-18 20:15:00,73.2,65.9,30.10,East,82,5.0,5.0,78,0.00,,,0.02,Wunderground v.1.15,2013-04-19 06:15:00,
2013-04-18 20:25:00,73.3,65.7,30.10,East,101,5.0,7.0,77,0.00,,,0.02,Wunderground v.1.15,2013-04-19 06:25:00,
2013-04-18 20:30:00,73.3,65.7,30.10,ESE,103,5.0,6.0,77,0.00,,,0.02,Wunderground v.1.15,2013-04-19 06:30:00,
2013-04-18 20:40:00,73.2,65.6,30.10,East,100,6.0,6.0,77,0.00,,,0.02,Wunderground v.1.15,2013-04-19 06:40:00,
2013-04-18 20:50:00,73.0,65.7,30.11,ENE,65,5.0,5.0,78,0.00,,,0.02,Wunderground v.1.15,2013-04-19 06:50:00,
2013-04-18 21:00:00,73.0,66.1,30.11,East,99,6.0,7.0,79,0.00,,,0.02,Wunderground v.1.15,2013-04-19 07:00:00,
2013-04-18 21:05:00,72.8,65.9,30.11,East,93,5.0,7.0,79,0.00,,,0.02,Wunderground v.1.15,2013-04-19 07:05:00,
2013-04-18 21:15:00,72.7,65.8,30.11,East,81,5.0,12.0,79,0.00,,,0.02,Wunderground v.1.15,2013-04-19 07:15:00,
2013-04-18 21:25:00,72.8,65.9,30.11,East,90,5.0,5.0,79,0.00,,,0.02,Wunderground v.1.15,2013-04-19 07:25:00,
2013-04-18 21:35:00,72.6,65.7,30.11,East,84,5.0,6.0,79,0.00,,,0.02,Wunderground v.1.15,2013-04-19 07:35:00,
2013-04-18 21:45:00,72.8,65.9,30.11,NE,51,6.0,6.0,79,0.00,,,0.02,Wunderground v.1.15,2013-04-19 07:45:00,
2013-04-18 21:55:00,72.7,65.4,30.11,East,96,5.0,6.0,78,0.00,,,0.02,Wunderground v.1.15,2013-04-19 07:55:00,
2013-04-18 22:05:00,72.8,65.5,30.11,ESE,105,4.0,4.0,78,0.00,,,0.02,Wunderground v.1.15,2013-04-19 08:05:00,
2013-04-18 22:15:00,72.8,65.5,30.11,ESE,117,4.0,5.0,78,0.00,,,0.02,Wunderground v.1.15,2013-04-19 08:15:00,
2013-04-18 22:25:00,72.8,65.5,30.11,East,95,4.0,6.0,78,0.00,,,0.02,Wunderground v.1.15,2013-04-19 08:25:00,
2013-04-18 22:35:00,72.7,65.4,30.10,NE,55,4.0,10.0,78,0.00,,,0.02,Wunderground v.1.15,2013-04-19 08:35:00,
2013-04-18 22:40:00,72.8,65.9,30.10,ESE,102,5.0,5.0,79,0.00,,,0.02,Wunderground v.1.15,2013-04-19 08:40:00,
2013-04-18 22:50:00,72.8,65.9,30.10,ESE,105,6.0,10.0,79,0.00,,,0.02,Wunderground v.1.15,2013-04-19 08:50:00,
2013-04-18 23:00:00,72.7,65.4,30.10,ESE,113,6.0,10.0,78,0.00,,,0.02,Wunderground v.1.15,2013-04-19 09:00:00,
2013-04-18 23:05:00,72.6,65.3,30.10,ESE,106,6.0,10.0,78,0.00,,,0.02,Wunderground v.1.15,2013-04-19 09:05:00,
2013-04-18 23:15:00,72.4,65.2,30.09,ESE,104,4.0,4.0,78,0.00,,,0.02,Wunderground v.1.15,2013-04-19 09:15:00,
2013-04-18 23:20:00,72.4,65.2,30.09,ENE,74,4.0,5.0,78,0.00,,,0.02,Wunderground v.1.15,2013-04-19 09:20:00,
2013-04-18 23:30:00,72.4,65.5,30.09,East,95,6.0,7.0,79,0.00,,,0.02,Wunderground v.1.15,2013-04-19 09:30:00,
2013-04-18 23:40:00,72.4,65.5,30.09,ENE,74,5.0,5.0,79,0.00,,,0.02,Wunderground v.1.15,2013-04-19 09:40:00,
2013-04-18 23:45:00,72.4,65.5,30.09,East,101,5.0,5.0,79,0.00,,,0.02,Wunderground v.1.15,2013-04-19 09:45:00,
2013-04-18 23:54:00,72.2,65.3,30.09,ENE,75,5.0,6.0,79,0.00,,,0.02,Wunderground v.1.15,2013-04-19 09:54:00,